Time;durP1;ratioP1;P1;durP2;ratioP2;P2;SDS_P1;SDS_P2;PMS_P1;PMS_P2;Temp;Humidity;BMP_temperature;BMP_pressure;BME280_temperature;BME280_humidity;BME280_pressure;Samples;Min_cycle;Max_cycle;Signal;HPM_P1;HPM_P2
2022/05/05 00:02:43;0.00;0.00;0.62;0.00;0.00;0.62;1.60;1.00;;;28.10;21.50;;;;;;2248251;61;20392;-62
2022/05/05 00:05:28;0.00;0.00;0.62;0.00;0.00;0.62;1.87;1.27;;;28.10;21.40;;;;;;2247899;61;20931;-65
2022/05/05 00:08:14;0.00;0.00;0.62;0.00;0.00;0.62;1.83;1.10;;;28.10;21.30;;;;;;2248352;61;20383;-62
2022/05/05 00:17:08;0.00;0.00;0.62;0.00;0.00;0.62;4.03;2.17;;;28.10;21.10;;;;;;2248415;61;20403;-61
2022/05/05 00:19:53;0.00;0.00;0.62;0.00;0.00;0.62;2.17;1.60;;;28.00;21.10;;;;;;2247756;61;20422;-61
2022/05/05 00:22:37;0.00;0.00;0.62;0.00;0.00;0.62;1.90;1.50;;;28.00;21.00;;;;;;2247952;61;20450;-63
2022/05/05 00:25:23;0.00;0.00;0.62;0.00;0.00;0.62;2.67;1.47;;;28.00;21.00;;;;;;2248401;61;20439;-61
2022/05/05 00:28:07;0.00;0.00;0.62;0.00;0.00;0.62;2.53;1.77;;;28.00;20.90;;;;;;2248483;61;20459;-63
2022/05/05 00:30:52;0.00;0.00;0.62;0.00;0.00;0.62;2.17;1.87;;;28.00;20.90;;;;;;2500425;53;20500;-62
2022/05/05 00:33:36;0.00;0.00;0.62;0.00;0.00;0.62;2.20;1.63;;;28.00;20.90;;;;;;2259068;58;20523;-63
2022/05/05 00:36:21;0.00;0.00;0.62;0.00;0.00;0.62;2.83;1.57;;;28.00;20.80;;;;;;2248319;61;20384;-62
2022/05/05 00:39:08;0.00;0.00;0.62;0.00;0.00;0.62;2.00;1.60;;;27.90;20.80;;;;;;2248247;61;20431;-62
2022/05/05 00:41:54;0.00;0.00;0.62;0.00;0.00;0.62;3.20;2.10;;;27.90;20.70;;;;;;2247027;61;20916;-62
2022/05/05 00:44:38;0.00;0.00;0.62;0.00;0.00;0.62;3.03;1.70;;;27.90;20.70;;;;;;2248220;61;20928;-62
2022/05/05 00:47:23;0.00;0.00;0.62;0.00;0.00;0.62;2.00;1.53;;;27.90;20.70;;;;;;2248421;61;20363;-68
2022/05/05 00:50:10;0.00;0.00;0.62;0.00;0.00;0.62;3.00;1.50;;;27.90;20.60;;;;;;2248158;61;20912;-65
2022/05/05 00:52:55;0.00;0.00;0.62;0.00;0.00;0.62;2.80;1.70;;;27.90;20.60;;;;;;2247955;61;20384;-62
2022/05/05 00:55:40;0.00;0.00;0.62;0.00;0.00;0.62;3.37;1.87;;;27.80;20.50;;;;;;2247774;61;20415;-62
2022/05/05 00:58:27;0.00;0.00;0.62;0.00;0.00;0.62;2.67;1.80;;;27.80;20.50;;;;;;2248026;61;20367;-62
2022/05/05 01:01:17;0.00;0.00;0.62;0.00;0.00;0.62;3.60;1.87;;;27.80;20.50;;;;;;2247894;61;20494;-63
2022/05/05 01:04:02;0.00;0.00;0.62;0.00;0.00;0.62;2.70;1.80;;;27.80;20.50;;;;;;2247550;61;20392;-63
2022/05/05 01:06:46;0.00;0.00;0.62;0.00;0.00;0.62;2.63;1.97;;;27.80;20.50;;;;;;2248063;61;20817;-63
2022/05/05 01:09:32;0.00;0.00;0.62;0.00;0.00;0.62;3.83;1.90;;;27.80;20.50;;;;;;2248361;61;20827;-62
2022/05/05 01:12:17;0.00;0.00;0.62;0.00;0.00;0.62;2.30;1.87;;;27.70;20.40;;;;;;2247644;61;20415;-63
2022/05/05 01:15:05;0.00;0.00;0.62;0.00;0.00;0.62;3.03;1.70;;;27.70;20.40;;;;;;2248248;61;20367;-62
2022/05/05 01:17:50;0.00;0.00;0.62;0.00;0.00;0.62;2.97;2.13;;;27.70;20.40;;;;;;2247799;61;20417;-62
2022/05/05 01:20:44;0.00;0.00;0.62;0.00;0.00;0.62;2.70;1.70;;;27.70;20.30;;;;;;2247608;61;20448;-63
2022/05/05 01:23:30;0.00;0.00;0.62;0.00;0.00;0.62;2.63;1.60;;;27.70;20.30;;;;;;2248357;61;20388;-62
2022/05/05 01:29:19;0.00;0.00;0.62;0.00;0.00;0.62;3.53;1.90;;;27.60;20.30;;;;;;2248037;61;20368;-62
2022/05/05 01:32:05;0.00;0.00;0.62;0.00;0.00;0.62;3.60;1.60;;;27.60;20.30;;;;;;2247460;61;20440;-59
2022/05/05 01:34:49;0.00;0.00;0.62;0.00;0.00;0.62;4.37;2.10;;;27.60;20.30;;;;;;2248409;61;20424;-62
2022/05/05 01:37:34;0.00;0.00;0.62;0.00;0.00;0.62;2.50;1.73;;;27.60;20.30;;;;;;2248161;61;20367;-65
2022/05/05 01:40:20;0.00;0.00;0.62;0.00;0.00;0.62;2.30;1.70;;;27.60;20.30;;;;;;2247431;61;20944;-60
2022/05/05 01:43:05;0.00;0.00;0.62;0.00;0.00;0.62;3.23;1.57;;;27.50;20.30;;;;;;2248047;61;20411;-62
2022/05/05 01:45:49;0.00;0.00;0.62;0.00;0.00;0.62;2.60;1.60;;;27.50;20.30;;;;;;2249077;61;20386;-63
2022/05/05 01:48:34;0.00;0.00;0.62;0.00;0.00;0.62;2.93;2.00;;;27.50;20.30;;;;;;2248290;61;20423;-62
2022/05/05 01:51:19;0.00;0.00;0.62;0.00;0.00;0.62;2.80;1.70;;;27.50;20.30;;;;;;2248164;61;20405;-65
2022/05/05 01:54:04;0.00;0.00;0.62;0.00;0.00;0.62;3.37;2.30;;;27.50;20.30;;;;;;2248939;61;20383;-62
2022/05/05 01:56:50;0.00;0.00;0.62;0.00;0.00;0.62;3.17;1.93;;;27.50;20.40;;;;;;2249133;61;20939;-61
2022/05/05 01:59:35;0.00;0.00;0.62;0.00;0.00;0.62;2.10;1.50;;;27.40;20.40;;;;;;2248807;61;20422;-62
2022/05/05 02:02:20;0.00;0.00;0.62;0.00;0.00;0.62;3.93;1.60;;;27.40;20.40;;;;;;2247998;61;20439;-62
2022/05/05 02:05:06;0.00;0.00;0.62;0.00;0.00;0.62;4.27;2.00;;;27.40;20.40;;;;;;2248564;61;20370;-62
2022/05/05 02:07:50;0.00;0.00;0.62;0.00;0.00;0.62;2.10;1.50;;;27.40;20.40;;;;;;2248962;61;20387;-62
2022/05/05 02:10:36;0.00;0.00;0.62;0.00;0.00;0.62;2.53;1.87;;;27.40;20.50;;;;;;2247685;61;20755;-60
2022/05/05 02:13:21;0.00;0.00;0.62;0.00;0.00;0.62;2.33;1.43;;;27.30;20.40;;;;;;2248672;61;20480;-62
2022/05/05 02:16:06;0.00;0.00;0.62;0.00;0.00;0.62;3.17;1.60;;;27.30;20.50;;;;;;2248934;61;20403;-61
2022/05/05 02:18:50;0.00;0.00;0.62;0.00;0.00;0.62;2.60;1.80;;;27.30;20.50;;;;;;2248528;61;20441;-62
2022/05/05 02:21:35;0.00;0.00;0.62;0.00;0.00;0.62;4.00;2.37;;;27.30;20.50;;;;;;2248317;61;20363;-62
2022/05/05 02:24:19;0.00;0.00;0.62;0.00;0.00;0.62;2.67;2.10;;;27.20;20.50;;;;;;2248291;61;20396;-62
2022/05/05 02:27:05;0.00;0.00;0.62;0.00;0.00;0.62;2.80;2.13;;;27.20;20.60;;;;;;2248390;61;20805;-62
2022/05/05 02:29:51;0.00;0.00;0.62;0.00;0.00;0.62;2.23;2.00;;;27.20;20.60;;;;;;2248639;61;20359;-68
2022/05/05 02:32:36;0.00;0.00;0.62;0.00;0.00;0.62;2.70;1.80;;;27.20;20.60;;;;;;2247714;61;20407;-62
2022/05/05 02:35:22;0.00;0.00;0.62;0.00;0.00;0.62;3.13;1.80;;;27.20;20.60;;;;;;2248710;61;20375;-62
2022/05/05 02:41:10;0.00;0.00;0.62;0.00;0.00;0.62;3.90;2.00;;;27.10;20.50;;;;;;2248323;61;20411;-63
2022/05/05 02:43:55;0.00;0.00;0.62;0.00;0.00;0.62;2.40;1.90;;;27.10;20.60;;;;;;2248608;61;20798;-61
2022/05/05 02:46:41;0.00;0.00;0.62;0.00;0.00;0.62;2.23;1.73;;;27.10;20.70;;;;;;2247747;61;20431;-62
2022/05/05 02:49:27;0.00;0.00;0.62;0.00;0.00;0.62;2.07;1.67;;;27.10;20.70;;;;;;2248693;61;20375;-62
2022/05/05 02:52:12;0.00;0.00;0.62;0.00;0.00;0.62;3.60;1.90;;;27.00;20.60;;;;;;2248263;61;20435;-63
2022/05/05 02:54:56;0.00;0.00;0.62;0.00;0.00;0.62;3.30;1.87;;;27.00;20.60;;;;;;2247624;61;20395;-61
2022/05/05 02:57:41;0.00;0.00;0.62;0.00;0.00;0.62;3.07;1.97;;;27.00;20.70;;;;;;2248602;61;20859;-63
2022/05/05 03:00:26;0.00;0.00;0.62;0.00;0.00;0.62;5.00;2.30;;;27.00;20.60;;;;;;2248307;61;20367;-62
2022/05/05 03:03:11;0.00;0.00;0.62;0.00;0.00;0.62;1.83;1.47;;;26.90;20.60;;;;;;2247953;61;20388;-63
2022/05/05 03:05:56;0.00;0.00;0.62;0.00;0.00;0.62;1.60;1.50;;;26.90;20.60;;;;;;2247949;61;20826;-61
2022/05/05 03:08:40;0.00;0.00;0.62;0.00;0.00;0.62;2.57;1.53;;;26.90;20.60;;;;;;2247409;61;20386;-63
2022/05/05 03:11:25;0.00;0.00;0.62;0.00;0.00;0.62;2.90;1.60;;;26.90;20.60;;;;;;2247599;61;20363;-63
2022/05/05 03:14:10;0.00;0.00;0.62;0.00;0.00;0.62;2.43;1.47;;;26.80;20.50;;;;;;2248682;61;20423;-63
2022/05/05 03:16:54;0.00;0.00;0.62;0.00;0.00;0.62;2.30;1.60;;;26.80;20.50;;;;;;2247796;61;20360;-62
2022/05/05 03:19:40;0.00;0.00;0.62;0.00;0.00;0.62;2.10;1.80;;;26.80;20.50;;;;;;2248329;61;20371;-62
2022/05/05 03:22:25;0.00;0.00;0.62;0.00;0.00;0.62;1.90;1.40;;;26.80;20.60;;;;;;2248208;61;20438;-62
2022/05/05 03:25:10;0.00;0.00;0.62;0.00;0.00;0.62;2.80;1.77;;;26.70;20.50;;;;;;2247965;61;20388;-61
2022/05/05 03:27:54;0.00;0.00;0.62;0.00;0.00;0.62;1.80;1.60;;;26.70;20.60;;;;;;2247804;61;20367;-62
2022/05/05 03:30:39;0.00;0.00;0.62;0.00;0.00;0.62;1.70;1.33;;;26.70;20.60;;;;;;2247366;61;20364;-63
2022/05/05 03:33:24;0.00;0.00;0.62;0.00;0.00;0.62;2.80;1.90;;;26.70;20.60;;;;;;2247971;61;20472;-63
2022/05/05 03:36:10;0.00;0.00;0.62;0.00;0.00;0.62;2.40;1.60;;;26.60;20.60;;;;;;2248618;61;20445;-64
2022/05/05 03:38:55;0.00;0.00;0.62;0.00;0.00;0.62;3.57;1.80;;;26.60;20.70;;;;;;2247753;61;20411;-62
2022/05/05 03:41:40;0.00;0.00;0.62;0.00;0.00;0.62;2.80;2.10;;;26.60;20.70;;;;;;2248018;61;20427;-65
2022/05/05 03:44:24;0.00;0.00;0.62;0.00;0.00;0.62;1.97;1.50;;;26.60;20.70;;;;;;2248507;61;20414;-60
2022/05/05 03:47:09;0.00;0.00;0.62;0.00;0.00;0.62;3.60;1.53;;;26.60;20.80;;;;;;2247757;61;20423;-60
2022/05/05 03:49:53;0.00;0.00;0.62;0.00;0.00;0.62;3.13;2.07;;;26.50;20.70;;;;;;2248290;61;20411;-63
2022/05/05 03:52:39;0.00;0.00;0.62;0.00;0.00;0.62;2.17;1.80;;;26.50;21.30;;;;;;2248020;61;20426;-57
2022/05/05 03:55:24;0.00;0.00;0.62;0.00;0.00;0.62;2.53;2.00;;;26.50;20.70;;;;;;2248788;61;20372;-63
2022/05/05 03:58:09;0.00;0.00;0.62;0.00;0.00;0.62;3.57;1.90;;;26.50;20.80;;;;;;2248576;61;20368;-65
2022/05/05 04:00:54;0.00;0.00;0.62;0.00;0.00;0.62;2.37;1.73;;;26.40;20.70;;;;;;2247435;61;20886;-61
2022/05/05 04:03:43;0.00;0.00;0.62;0.00;0.00;0.62;2.20;1.80;;;26.40;20.70;;;;;;2248440;61;20818;-60
2022/05/05 04:06:27;0.00;0.00;0.62;0.00;0.00;0.62;2.60;1.97;;;26.40;20.70;;;;;;2248501;61;20387;-62
2022/05/05 04:09:13;0.00;0.00;0.62;0.00;0.00;0.62;4.60;2.30;;;26.40;20.70;;;;;;2247453;61;20368;-60
2022/05/05 04:11:58;0.00;0.00;0.62;0.00;0.00;0.62;3.37;2.20;;;26.40;20.70;;;;;;2247766;61;20363;-63
2022/05/05 04:14:43;0.00;0.00;0.62;0.00;0.00;0.62;3.07;1.80;;;26.30;20.70;;;;;;2248730;61;20411;-63
2022/05/05 04:17:28;0.00;0.00;0.62;0.00;0.00;0.62;2.33;1.97;;;26.30;21.20;;;;;;2248539;61;20992;-63
2022/05/05 04:20:12;0.00;0.00;0.62;0.00;0.00;0.62;3.07;2.17;;;26.30;20.70;;;;;;2248150;61;20391;-62
2022/05/05 04:22:57;0.00;0.00;0.62;0.00;0.00;0.62;4.47;2.20;;;26.30;20.70;;;;;;2247667;61;20386;-60
2022/05/05 04:25:44;0.00;0.00;0.62;0.00;0.00;0.62;3.77;1.90;;;26.30;20.70;;;;;;2248114;61;20527;-61
2022/05/05 04:28:29;0.00;0.00;0.62;0.00;0.00;0.62;4.03;2.20;;;26.20;20.70;;;;;;2248395;61;20403;-61
2022/05/05 04:31:16;0.00;0.00;0.62;0.00;0.00;0.62;3.10;1.73;;;26.20;20.70;;;;;;2247160;61;20364;-62
2022/05/05 04:34:01;0.00;0.00;0.62;0.00;0.00;0.62;2.77;1.63;;;26.20;20.70;;;;;;2248238;61;20527;-62
2022/05/05 04:36:45;0.00;0.00;0.62;0.00;0.00;0.62;2.37;1.83;;;26.20;20.70;;;;;;2248438;61;20368;-62
2022/05/05 04:39:30;0.00;0.00;0.62;0.00;0.00;0.62;2.33;2.00;;;26.20;20.70;;;;;;2248040;61;20856;-61
2022/05/05 04:42:15;0.00;0.00;0.62;0.00;0.00;0.62;3.83;2.10;;;26.10;20.70;;;;;;2247955;61;20795;-62
2022/05/05 04:45:00;0.00;0.00;0.62;0.00;0.00;0.62;5.10;2.00;;;26.10;20.70;;;;;;2247702;61;20372;-62
2022/05/05 04:47:44;0.00;0.00;0.62;0.00;0.00;0.62;2.83;2.00;;;26.10;20.70;;;;;;2248262;61;20771;-61
2022/05/05 04:50:29;0.00;0.00;0.62;0.00;0.00;0.62;2.77;1.70;;;26.10;20.80;;;;;;2247952;61;20415;-63
2022/05/05 04:53:14;0.00;0.00;0.62;0.00;0.00;0.62;2.30;1.80;;;26.10;20.80;;;;;;2247343;61;20403;-60
2022/05/05 04:55:58;0.00;0.00;0.62;0.00;0.00;0.62;4.17;2.00;;;26.00;20.70;;;;;;2248314;61;20876;-62
2022/05/05 04:58:44;0.00;0.00;0.62;0.00;0.00;0.62;2.40;1.73;;;26.00;20.70;;;;;;2248795;61;20411;-62
2022/05/05 05:01:29;0.00;0.00;0.62;0.00;0.00;0.62;2.97;2.20;;;26.00;20.70;;;;;;2247353;61;20900;-59
2022/05/05 05:04:13;0.00;0.00;0.62;0.00;0.00;0.62;3.40;2.43;;;26.00;20.80;;;;;;2248306;61;20421;-63
2022/05/05 05:06:58;0.00;0.00;0.62;0.00;0.00;0.62;2.30;1.83;;;26.00;20.80;;;;;;2249537;61;20394;-61
2022/05/05 05:09:43;0.00;0.00;0.62;0.00;0.00;0.62;2.63;1.73;;;26.00;20.80;;;;;;2248444;61;20403;-63
2022/05/05 05:12:28;0.00;0.00;0.62;0.00;0.00;0.62;3.63;1.93;;;26.00;20.80;;;;;;2247718;61;20390;-58
2022/05/05 05:15:14;0.00;0.00;0.62;0.00;0.00;0.62;2.73;1.93;;;26.00;20.80;;;;;;2247446;61;20460;-60
2022/05/05 05:17:59;0.00;0.00;0.62;0.00;0.00;0.62;2.20;1.73;;;25.90;20.80;;;;;;2248366;61;20368;-60
2022/05/05 05:20:43;0.00;0.00;0.62;0.00;0.00;0.62;3.40;1.70;;;25.90;20.80;;;;;;2248710;61;20371;-65
2022/05/05 05:23:28;0.00;0.00;0.62;0.00;0.00;0.62;2.30;1.80;;;25.90;20.80;;;;;;2248428;61;20425;-62
2022/05/05 05:26:15;0.00;0.00;0.62;0.00;0.00;0.62;3.40;1.90;;;25.90;20.80;;;;;;2248949;61;20407;-62
2022/05/05 05:29:00;0.00;0.00;0.62;0.00;0.00;0.62;2.47;1.77;;;25.90;20.90;;;;;;2250444;61;20845;-61
2022/05/05 05:31:46;0.00;0.00;0.62;0.00;0.00;0.62;2.77;2.00;;;25.90;20.90;;;;;;2248262;61;20368;-65
2022/05/05 05:34:30;0.00;0.00;0.62;0.00;0.00;0.62;2.30;1.83;;;25.90;20.90;;;;;;2248702;61;20387;-61
2022/05/05 05:37:15;0.00;0.00;0.62;0.00;0.00;0.62;2.60;2.00;;;25.80;20.80;;;;;;2248173;61;20360;-63
2022/05/05 05:39:59;0.00;0.00;0.62;0.00;0.00;0.62;5.30;2.87;;;25.90;20.90;;;;;;2249080;61;20360;-63
2022/05/05 05:42:44;0.00;0.00;0.62;0.00;0.00;0.62;3.40;2.50;;;25.80;20.80;;;;;;2248627;61;20785;-62
2022/05/05 05:45:28;0.00;0.00;0.62;0.00;0.00;0.62;2.30;1.70;;;25.80;20.90;;;;;;2247823;61;20363;-63
2022/05/05 05:48:14;0.00;0.00;0.62;0.00;0.00;0.62;3.83;2.60;;;25.80;20.90;;;;;;2248770;61;20844;-63
2022/05/05 05:50:59;0.00;0.00;0.62;0.00;0.00;0.62;3.50;2.00;;;25.80;20.90;;;;;;2248583;61;20945;-63
2022/05/05 05:53:44;0.00;0.00;0.62;0.00;0.00;0.62;3.80;1.93;;;25.80;20.90;;;;;;2248718;61;20421;-61
2022/05/05 05:56:29;0.00;0.00;0.62;0.00;0.00;0.62;3.10;1.77;;;25.80;20.90;;;;;;2248868;61;20884;-63
2022/05/05 05:59:14;0.00;0.00;0.62;0.00;0.00;0.62;2.93;2.07;;;25.80;20.90;;;;;;2253214;61;20376;-63
2022/05/05 06:05:05;0.00;0.00;0.62;0.00;0.00;0.62;3.70;1.73;;;25.80;20.90;;;;;;2249152;61;20368;-60
2022/05/05 06:07:50;0.00;0.00;0.62;0.00;0.00;0.62;2.57;1.90;;;25.80;21.00;;;;;;2248315;61;20418;-63
2022/05/05 06:10:36;0.00;0.00;0.62;0.00;0.00;0.62;3.50;2.10;;;25.80;21.00;;;;;;2248099;61;20817;-59
2022/05/05 06:13:21;0.00;0.00;0.62;0.00;0.00;0.62;4.00;2.30;;;25.70;21.00;;;;;;2248209;61;20462;-59
2022/05/05 06:16:06;0.00;0.00;0.62;0.00;0.00;0.62;2.60;1.87;;;25.80;21.10;;;;;;2248479;61;20896;-57
2022/05/05 06:18:51;0.00;0.00;0.62;0.00;0.00;0.62;2.20;1.83;;;25.70;21.00;;;;;;2248720;61;20391;-60
2022/05/05 06:21:37;0.00;0.00;0.62;0.00;0.00;0.62;3.50;1.93;;;25.70;21.00;;;;;;2247777;61;20375;-60
2022/05/05 06:24:21;0.00;0.00;0.62;0.00;0.00;0.62;3.70;2.10;;;25.70;21.00;;;;;;2248461;61;20422;-60
2022/05/05 06:27:06;0.00;0.00;0.62;0.00;0.00;0.62;2.33;1.70;;;25.70;21.00;;;;;;2248744;61;20955;-58
2022/05/05 06:29:51;0.00;0.00;0.62;0.00;0.00;0.62;2.40;2.10;;;25.70;21.00;;;;;;2247939;61;20367;-62
2022/05/05 06:32:36;0.00;0.00;0.62;0.00;0.00;0.62;3.10;2.20;;;25.70;21.00;;;;;;2247828;61;20874;-61
2022/05/05 06:35:21;0.00;0.00;0.62;0.00;0.00;0.62;4.60;2.00;;;25.70;21.10;;;;;;2248699;61;20368;-57
2022/05/05 06:38:07;0.00;0.00;0.62;0.00;0.00;0.62;6.30;2.90;;;25.70;21.10;;;;;;2248855;61;20448;-60
2022/05/05 06:40:52;0.00;0.00;0.62;0.00;0.00;0.62;3.03;2.00;;;25.70;21.10;;;;;;2248282;61;20422;-60
2022/05/05 06:43:36;0.00;0.00;0.62;0.00;0.00;0.62;5.23;2.30;;;25.70;21.10;;;;;;2248305;61;20519;-62
2022/05/05 06:46:21;0.00;0.00;0.62;0.00;0.00;0.62;3.83;1.87;;;25.70;21.10;;;;;;2248467;61;20395;-61
2022/05/05 06:49:05;0.00;0.00;0.62;0.00;0.00;0.62;3.57;2.10;;;25.70;21.10;;;;;;2248766;61;20367;-60
2022/05/05 06:51:50;0.00;0.00;0.62;0.00;0.00;0.62;3.30;2.40;;;25.70;21.10;;;;;;2247635;61;20972;-61
2022/05/05 06:54:36;0.00;0.00;0.62;0.00;0.00;0.62;3.50;2.60;;;25.70;21.10;;;;;;2248124;61;20363;-59
2022/05/05 06:57:21;0.00;0.00;0.62;0.00;0.00;0.62;4.47;2.80;;;25.70;21.70;;;;;;2248778;61;20915;-62
2022/05/05 07:00:07;0.00;0.00;0.62;0.00;0.00;0.62;2.47;2.27;;;25.70;21.20;;;;;;2248116;61;20817;-62
2022/05/05 07:02:51;0.00;0.00;0.62;0.00;0.00;0.62;3.70;2.30;;;25.70;21.20;;;;;;2248656;61;20384;-61
2022/05/05 07:05:36;0.00;0.00;0.62;0.00;0.00;0.62;2.47;2.10;;;25.70;21.20;;;;;;2247820;61;20366;-59
2022/05/05 07:08:21;0.00;0.00;0.62;0.00;0.00;0.62;2.90;2.00;;;25.70;21.20;;;;;;2248617;61;20516;-62
2022/05/05 07:11:07;0.00;0.00;0.62;0.00;0.00;0.62;2.40;1.70;;;25.70;21.20;;;;;;2248154;61;20423;-62
2022/05/05 07:13:52;0.00;0.00;0.62;0.00;0.00;0.62;4.40;2.70;;;25.70;21.20;;;;;;2247709;61;20419;-61
2022/05/05 07:16:36;0.00;0.00;0.62;0.00;0.00;0.62;3.80;2.40;;;25.70;21.20;;;;;;2248575;61;20908;-62
2022/05/05 07:19:21;0.00;0.00;0.62;0.00;0.00;0.62;3.60;2.13;;;25.70;21.20;;;;;;2248429;61;20770;-62
2022/05/05 07:22:06;0.00;0.00;0.62;0.00;0.00;0.62;4.43;2.37;;;25.70;21.20;;;;;;2247598;61;20948;-65
2022/05/05 07:24:50;0.00;0.00;0.62;0.00;0.00;0.62;3.00;2.23;;;25.70;21.20;;;;;;2248573;61;20419;-58
2022/05/05 07:27:37;0.00;0.00;0.62;0.00;0.00;0.62;3.60;2.40;;;25.70;21.20;;;;;;2247419;61;20458;-64
2022/05/05 07:30:23;0.00;0.00;0.62;0.00;0.00;0.62;2.63;2.10;;;25.70;21.10;;;;;;2248022;61;20368;-62
2022/05/05 07:33:08;0.00;0.00;0.62;0.00;0.00;0.62;3.10;2.23;;;25.70;21.70;;;;;;2248570;61;20785;-61
2022/05/05 07:35:53;0.00;0.00;0.62;0.00;0.00;0.62;2.40;1.90;;;25.70;21.10;;;;;;2247721;61;20446;-63
2022/05/05 07:38:38;0.00;0.00;0.62;0.00;0.00;0.62;2.70;2.10;;;25.70;21.10;;;;;;2248519;61;20415;-63
2022/05/05 07:41:23;0.00;0.00;0.62;0.00;0.00;0.62;2.83;2.03;;;25.70;21.00;;;;;;2247938;61;20399;-62
2022/05/05 07:44:09;0.00;0.00;0.62;0.00;0.00;0.62;5.50;1.90;;;25.70;21.00;;;;;;2248148;61;20446;-60
2022/05/05 07:46:55;0.00;0.00;0.62;0.00;0.00;0.62;3.20;2.43;;;25.70;21.00;;;;;;2248295;61;20391;-57
2022/05/05 07:49:39;0.00;0.00;0.62;0.00;0.00;0.62;2.20;1.90;;;25.70;21.00;;;;;;2247197;61;20364;-67
2022/05/05 07:52:24;0.00;0.00;0.62;0.00;0.00;0.62;2.70;1.80;;;25.70;21.00;;;;;;2248106;61;20379;-64
2022/05/05 07:55:09;0.00;0.00;0.62;0.00;0.00;0.62;2.93;1.90;;;25.70;21.10;;;;;;2248553;61;20415;-67
2022/05/05 07:57:54;0.00;0.00;0.62;0.00;0.00;0.62;3.00;1.80;;;25.70;21.10;;;;;;2247676;61;20387;-65
2022/05/05 08:00:40;0.00;0.00;0.62;0.00;0.00;0.62;2.53;1.90;;;25.70;21.20;;;;;;2248180;61;20376;-68
2022/05/05 08:03:24;0.00;0.00;0.62;0.00;0.00;0.62;2.80;1.80;;;25.70;21.20;;;;;;2248318;61;20438;-59
2022/05/05 08:06:09;0.00;0.00;0.62;0.00;0.00;0.62;4.17;2.30;;;25.70;21.20;;;;;;2247884;61;20439;-62
2022/05/05 08:08:54;0.00;0.00;0.62;0.00;0.00;0.62;3.40;2.23;;;25.70;21.20;;;;;;2248246;61;20372;-64
2022/05/05 08:11:38;0.00;0.00;0.62;0.00;0.00;0.62;2.87;2.07;;;25.70;21.10;;;;;;2247303;61;20438;-60
2022/05/05 08:14:23;0.00;0.00;0.62;0.00;0.00;0.62;2.60;2.40;;;25.80;21.10;;;;;;2248257;61;20364;-60
2022/05/05 08:17:09;0.00;0.00;0.62;0.00;0.00;0.62;2.43;2.17;;;25.70;21.10;;;;;;2248091;61;20388;-55
2022/05/05 08:19:54;0.00;0.00;0.62;0.00;0.00;0.62;3.43;2.67;;;25.80;21.00;;;;;;2243021;61;20377;-56
2022/05/05 08:22:38;0.00;0.00;0.62;0.00;0.00;0.62;4.47;2.90;;;25.70;21.00;;;;;;2243868;61;20791;-61
2022/05/05 08:28:29;0.00;0.00;0.62;0.00;0.00;0.62;2.67;2.17;;;25.80;20.90;;;;;;2244217;61;20375;-68
2022/05/05 08:31:14;0.00;0.00;0.62;0.00;0.00;0.62;3.10;2.03;;;25.70;20.90;;;;;;2243853;61;20377;-67
2022/05/05 08:34:00;0.00;0.00;0.62;0.00;0.00;0.62;3.50;2.23;;;25.80;21.00;;;;;;2244372;61;20576;-61
2022/05/05 08:36:45;0.00;0.00;0.62;0.00;0.00;0.62;2.90;2.20;;;25.80;21.10;;;;;;2244708;61;20404;-66
2022/05/05 08:39:29;0.00;0.00;0.62;0.00;0.00;0.62;3.50;2.40;;;25.80;21.10;;;;;;2244785;61;20905;-66
2022/05/05 08:42:14;0.00;0.00;0.62;0.00;0.00;0.62;3.07;2.77;;;25.80;21.20;;;;;;2243040;61;20388;-68
2022/05/05 08:44:59;0.00;0.00;0.62;0.00;0.00;0.62;2.80;2.13;;;25.80;21.20;;;;;;2244497;61;20424;-66
2022/05/05 08:47:46;0.00;0.00;0.62;0.00;0.00;0.62;3.80;1.90;;;25.80;21.20;;;;;;2244531;61;20392;-66
2022/05/05 08:50:33;0.00;0.00;0.62;0.00;0.00;0.62;3.03;2.23;;;25.80;21.20;;;;;;2243026;61;20372;-64
2022/05/05 08:53:21;0.00;0.00;0.62;0.00;0.00;0.62;3.70;2.40;;;25.80;21.30;;;;;;2243919;61;20777;-68
2022/05/05 08:56:06;0.00;0.00;0.62;0.00;0.00;0.62;2.70;2.20;;;25.90;21.30;;;;;;2243812;61;20385;-62
2022/05/05 08:58:50;0.00;0.00;0.62;0.00;0.00;0.62;3.07;1.80;;;25.90;21.40;;;;;;2245559;61;20832;-65
2022/05/05 09:01:36;0.00;0.00;0.62;0.00;0.00;0.62;3.00;2.10;;;25.90;21.40;;;;;;2244063;61;20368;-66
2022/05/05 09:04:21;0.00;0.00;0.62;0.00;0.00;0.62;2.40;1.73;;;25.90;21.40;;;;;;2243825;61;20447;-64
2022/05/05 09:07:07;0.00;0.00;0.62;0.00;0.00;0.62;3.00;1.77;;;26.00;21.50;;;;;;2244230;61;20540;-62
2022/05/05 09:09:51;0.00;0.00;0.62;0.00;0.00;0.62;2.63;1.83;;;26.00;21.60;;;;;;2244021;61;20368;-67
2022/05/05 09:12:36;0.00;0.00;0.62;0.00;0.00;0.62;3.10;1.97;;;26.00;21.60;;;;;;2243102;61;20518;-66
2022/05/05 09:15:29;0.00;0.00;0.62;0.00;0.00;0.62;2.40;1.60;;;26.00;21.60;;;;;;2243959;61;20436;-66
2022/05/05 09:18:14;0.00;0.00;0.62;0.00;0.00;0.62;3.83;2.30;;;26.00;21.60;;;;;;2244050;61;20424;-66
2022/05/05 09:21:01;0.00;0.00;0.62;0.00;0.00;0.62;3.70;2.03;;;26.00;21.60;;;;;;2243789;61;20390;-64
2022/05/05 09:26:55;0.00;0.00;0.62;0.00;0.00;0.62;2.50;1.50;;;26.10;21.80;;;;;;2247787;61;20391;-62
2022/05/05 09:29:39;0.00;0.00;0.62;0.00;0.00;0.62;2.57;1.70;;;26.10;21.70;;;;;;2248334;61;20364;-60
2022/05/05 09:32:27;0.00;0.00;0.62;0.00;0.00;0.62;2.70;1.63;;;26.10;21.70;;;;;;2247352;61;20387;-55
2022/05/05 09:35:15;0.00;0.00;0.62;0.00;0.00;0.62;2.70;1.60;;;26.20;21.80;;;;;;2247995;61;20896;-60
2022/05/05 09:37:59;0.00;0.00;0.62;0.00;0.00;0.62;2.67;1.60;;;26.20;21.80;;;;;;2246362;61;20407;-63
2022/05/05 09:41:02;0.00;0.00;0.62;0.00;0.00;0.62;1.93;1.40;;;26.20;21.80;;;;;;2243302;61;20420;-53
2022/05/05 09:43:47;0.00;0.00;0.62;0.00;0.00;0.62;2.33;1.80;;;26.20;21.80;;;;;;2244254;61;20384;-64
2022/05/05 09:46:33;0.00;0.00;0.62;0.00;0.00;0.62;3.37;1.90;;;26.20;21.80;;;;;;2244328;61;20408;-64
2022/05/05 09:49:19;0.00;0.00;0.62;0.00;0.00;0.62;4.63;1.67;;;26.30;21.90;;;;;;2242972;61;20423;-63
2022/05/05 09:58:21;0.00;0.00;0.62;0.00;0.00;0.62;3.00;1.57;;;26.40;22.00;;;;;;2244532;61;20356;-64
2022/05/05 10:01:12;0.00;0.00;0.62;0.00;0.00;0.62;1.50;1.20;;;26.30;21.90;;;;;;2243131;61;20392;-65
2022/05/05 10:04:02;0.00;0.00;0.62;0.00;0.00;0.62;1.93;1.40;;;26.40;22.00;;;;;;2243647;61;20992;-66
2022/05/05 10:06:48;0.00;0.00;0.62;0.00;0.00;0.62;2.20;1.67;;;26.40;22.00;;;;;;2244594;61;20389;-67
2022/05/05 10:09:33;0.00;0.00;0.62;0.00;0.00;0.62;2.33;2.00;;;26.40;22.00;;;;;;2245183;61;20412;-62
2022/05/05 10:12:19;0.00;0.00;0.62;0.00;0.00;0.62;2.30;1.50;;;26.50;22.10;;;;;;2243886;61;20392;-62
2022/05/05 10:15:06;0.00;0.00;0.62;0.00;0.00;0.62;2.67;1.87;;;26.50;22.00;;;;;;2244679;61;20373;-64
2022/05/05 10:17:52;0.00;0.00;0.62;0.00;0.00;0.62;1.80;1.43;;;26.50;22.10;;;;;;2244320;61;20368;-64
2022/05/05 10:20:37;0.00;0.00;0.62;0.00;0.00;0.62;2.17;1.30;;;26.60;22.10;;;;;;2244706;61;20372;-63
2022/05/05 10:23:36;0.00;0.00;0.62;0.00;0.00;0.62;1.50;1.20;;;26.60;22.10;;;;;;2245111;61;20431;-63
2022/05/05 10:26:23;0.00;0.00;0.62;0.00;0.00;0.62;2.30;1.73;;;26.60;22.10;;;;;;2244253;61;20452;-67
2022/05/05 10:29:39;0.00;0.00;0.62;0.00;0.00;0.62;2.53;1.87;;;26.60;22.10;;;;;;2244621;61;20377;-66
2022/05/05 10:32:26;0.00;0.00;0.62;0.00;0.00;0.62;1.90;1.20;;;26.60;22.10;;;;;;2243512;61;20856;-61
2022/05/05 10:35:23;0.00;0.00;0.62;0.00;0.00;0.62;2.60;1.70;;;26.70;22.10;;;;;;2244659;61;21059;-65
2022/05/05 10:38:41;0.00;0.00;0.62;0.00;0.00;0.62;2.23;1.40;;;26.70;22.20;;;;;;2244874;61;20453;-58
2022/05/05 10:41:40;0.00;0.00;0.62;0.00;0.00;0.62;1.90;1.33;;;26.80;22.20;;;;;;2246214;61;20368;-59
2022/05/05 10:49:44;0.00;0.00;0.62;0.00;0.00;0.62;3.07;1.90;;;26.80;22.10;;;;;;2245918;61;20795;-66
2022/05/05 10:52:30;0.00;0.00;0.62;0.00;0.00;0.62;1.90;1.37;;;26.80;22.50;;;;;;2244259;61;20400;-62
2022/05/05 10:55:28;0.00;0.00;0.62;0.00;0.00;0.62;2.87;1.60;;;26.90;22.00;;;;;;2243713;61;20456;-63
2022/05/05 10:58:48;0.00;0.00;0.62;0.00;0.00;0.62;2.00;1.27;;;26.90;21.90;;;;;;2244796;61;20409;-61
2022/05/05 11:01:58;0.00;0.00;0.62;0.00;0.00;0.62;2.47;1.57;;;26.90;21.90;;;;;;2244624;61;20373;-59
2022/05/05 11:04:44;0.00;0.00;0.62;0.00;0.00;0.62;1.93;1.30;;;27.00;21.90;;;;;;2244936;61;20420;-58
2022/05/05 11:07:31;0.00;0.00;0.62;0.00;0.00;0.62;2.30;1.20;;;27.00;21.80;;;;;;2244672;61;20396;-59
2022/05/05 11:10:46;0.00;0.00;0.62;0.00;0.00;0.62;1.70;1.57;;;27.00;21.80;;;;;;2244142;61;20769;-61
2022/05/05 11:13:35;0.00;0.00;0.62;0.00;0.00;0.62;1.63;1.30;;;27.00;21.70;;;;;;2244264;61;20401;-59
2022/05/05 11:22:41;0.00;0.00;0.62;0.00;0.00;0.62;2.43;1.20;;;27.00;21.70;;;;;;2244820;61;20431;-61
2022/05/05 11:25:26;0.00;0.00;0.62;0.00;0.00;0.62;2.97;1.37;;;27.10;21.80;;;;;;2243831;61;21021;-59
2022/05/05 11:28:13;0.00;0.00;0.62;0.00;0.00;0.62;1.83;1.20;;;27.10;21.80;;;;;;2244614;61;20396;-61
2022/05/05 11:30:58;0.00;0.00;0.62;0.00;0.00;0.62;1.93;1.10;;;27.10;21.80;;;;;;2244690;61;20503;-67
2022/05/05 11:33:46;0.00;0.00;0.62;0.00;0.00;0.62;6.33;1.40;;;27.10;21.90;;;;;;2244034;61;20388;-68
2022/05/05 11:36:37;0.00;0.00;0.62;0.00;0.00;0.62;2.13;1.30;;;27.20;22.00;;;;;;2248621;61;20392;-65